Terminal Aerodrome Forecast
Issued by NWS Grand Forks, ND

Home | Current Version | Previous Version | Text Only | Print | Product List | Glossary On
Versions: 1 2 3 4 5 6 7 8 9 10 11 12 13 14 15
000
FTUS43 KFGF 280205 AAA
TAFFAR
TAF AMD
KFAR 280205Z 2802/2824 01010KT P6SM BKN050
     FM281000 01006KT P6SM SKC
     FM282300 04006KT P6SM SKC=

USA.gov is the U.S. government's official web portal to all federal, state and local government web resources and services.